EXS21VR LGAV-EGBB
Flight info
| Callsign | EXS21VR |
|---|---|
| Flight time | 3h 31m |
| Altitude | 34000 |
| Route | KOR UL53 GARTA UV60 YNN UL611 TUMBO DCT OVVER DCT RODON DCT NERRA DCT VEKEN/N0438F360 DCT ERKIR DCT BABEG DCT LIRSU DCT DENUT L610 HEMEL |
| Aircraft | B738/M-SDE2E3FGHIRWXY/LB1 |
Departure
| Time | 2026-05-04 15:35 |
|---|---|
| Airport | Athens Eleftherios Venizelos International Airport (LGAV) |
Arrival
| Time | 2026-05-04 19:06 |
|---|---|
| Airport | Birmingham Airport (EGBB) |
| Time | Latitude | Longitude | Altitude | Speed | Heading |
|---|---|---|---|---|---|
| 2026-05-04 14:44 | 37.93144 | 23.94369 | 300 ft | 0 kts | 217° |
| 2026-05-04 15:28 | 37.93165 | 23.94389 | 301 ft | 3 kts | 217° |
| 2026-05-04 15:28 | 37.93183 | 23.94405 | 303 ft | 4 kts | 207° |
| 2026-05-04 15:28 | 37.93221 | 23.94392 | 300 ft | 4 kts | 127° |
| 2026-05-04 15:29 | 37.93225 | 23.94384 | 301 ft | 1 kts | 127° |
| 2026-05-04 15:31 | 37.93224 | 23.94387 | 300 ft | 1 kts | 127° |
| 2026-05-04 15:32 | 37.93123 | 23.94559 | 301 ft | 13 kts | 127° |
| 2026-05-04 15:32 | 37.93073 | 23.94748 | 300 ft | 12 kts | 64° |
| 2026-05-04 15:33 | 37.93138 | 23.94932 | 298 ft | 11 kts | 67° |
| 2026-05-04 15:34 | 37.93155 | 23.95082 | 291 ft | 2 kts | 87° |
| 2026-05-04 15:34 | 37.93185 | 23.95117 | 291 ft | 17 kts | 37° |
| 2026-05-04 15:34 | 37.94160 | 23.96043 | 283 ft | 150 kts | 37° |
| 2026-05-04 15:35 | 37.96021 | 23.97809 | 1591 ft | 168 kts | 34° |
| 2026-05-04 15:35 | 37.96989 | 23.98743 | 2098 ft | 189 kts | 33° |
| 2026-05-04 15:35 | 37.98109 | 23.99817 | 2351 ft | 215 kts | 34° |
| 2026-05-04 15:36 | 38.00576 | 24.02196 | 3479 ft | 235 kts | 34° |
| 2026-05-04 15:36 | 38.01911 | 24.03483 | 4188 ft | 240 kts | 34° |
| 2026-05-04 15:36 | 38.03262 | 24.04745 | 4956 ft | 245 kts | 26° |
| 2026-05-04 15:37 | 38.04907 | 24.05216 | 5475 ft | 248 kts | 349° |
| 2026-05-04 15:37 | 38.06442 | 24.04336 | 6235 ft | 249 kts | 319° |
| 2026-05-04 15:37 | 38.07502 | 24.02599 | 7018 ft | 254 kts | 297° |
| 2026-05-04 15:37 | 38.07946 | 24.00389 | 7710 ft | 265 kts | 278° |
| 2026-05-04 15:38 | 38.08003 | 23.98023 | 8424 ft | 272 kts | 273° |
| 2026-05-04 15:38 | 38.07967 | 23.95597 | 9146 ft | 277 kts | 272° |
| 2026-05-04 15:38 | 38.07913 | 23.93128 | 9924 ft | 282 kts | 272° |
| 2026-05-04 15:38 | 38.07860 | 23.90605 | 10499 ft | 292 kts | 272° |
| 2026-05-04 15:39 | 38.07821 | 23.87921 | 10660 ft | 316 kts | 272° |
| 2026-05-04 15:39 | 38.07780 | 23.85071 | 10834 ft | 337 kts | 272° |
| 2026-05-04 15:39 | 38.07694 | 23.78851 | 11692 ft | 360 kts | 272° |
| 2026-05-04 15:40 | 38.07653 | 23.75639 | 12356 ft | 365 kts | 272° |
| 2026-05-04 15:40 | 38.07615 | 23.72389 | 12951 ft | 371 kts | 272° |
| 2026-05-04 15:40 | 38.07577 | 23.69088 | 13560 ft | 377 kts | 272° |
| 2026-05-04 15:40 | 38.07539 | 23.65746 | 14181 ft | 381 kts | 272° |
| 2026-05-04 15:41 | 38.07500 | 23.62362 | 14791 ft | 384 kts | 272° |
| 2026-05-04 15:41 | 38.07461 | 23.58952 | 15416 ft | 387 kts | 272° |
| 2026-05-04 15:41 | 38.07420 | 23.55516 | 15990 ft | 391 kts | 271° |
| 2026-05-04 15:41 | 38.07451 | 23.52104 | 16661 ft | 390 kts | 279° |
| 2026-05-04 15:42 | 38.08158 | 23.48830 | 17390 ft | 383 kts | 298° |
| 2026-05-04 15:42 | 38.09632 | 23.46035 | 18054 ft | 381 kts | 313° |
| 2026-05-04 15:42 | 38.11399 | 23.43509 | 18571 ft | 386 kts | 314° |
| 2026-05-04 15:42 | 38.13210 | 23.40947 | 18957 ft | 393 kts | 313° |
| 2026-05-04 15:43 | 38.15042 | 23.38349 | 19448 ft | 396 kts | 313° |
| 2026-05-04 15:43 | 38.16873 | 23.35735 | 20064 ft | 396 kts | 313° |
| 2026-05-04 15:43 | 38.18696 | 23.33113 | 20670 ft | 396 kts | 313° |
| 2026-05-04 15:43 | 38.20520 | 23.30478 | 21219 ft | 398 kts | 313° |
| 2026-05-04 15:44 | 38.21734 | 23.28718 | 21563 ft | 399 kts | 313° |
| 2026-05-04 15:44 | 38.23565 | 23.26056 | 22079 ft | 401 kts | 313° |
| 2026-05-04 15:44 | 38.25410 | 23.23369 | 22600 ft | 403 kts | 313° |
| 2026-05-04 15:44 | 38.27257 | 23.20676 | 23111 ft | 405 kts | 313° |
| 2026-05-04 15:45 | 38.29115 | 23.17962 | 23608 ft | 407 kts | 313° |
| 2026-05-04 15:45 | 38.30982 | 23.15233 | 24031 ft | 408 kts | 313° |
| 2026-05-04 15:45 | 38.32848 | 23.12503 | 24483 ft | 408 kts | 313° |
| 2026-05-04 15:45 | 38.34710 | 23.09777 | 24993 ft | 405 kts | 313° |
| 2026-05-04 15:46 | 38.36504 | 23.07145 | 25871 ft | 394 kts | 314° |
| 2026-05-04 15:46 | 38.38301 | 23.04507 | 26336 ft | 395 kts | 314° |
| 2026-05-04 15:46 | 38.40111 | 23.01853 | 26603 ft | 399 kts | 314° |
| 2026-05-04 15:46 | 38.41940 | 22.99168 | 26916 ft | 401 kts | 314° |
| 2026-05-04 15:47 | 38.43771 | 22.96478 | 27302 ft | 402 kts | 314° |
| 2026-05-04 15:47 | 38.45603 | 22.93784 | 27694 ft | 402 kts | 314° |
| 2026-05-04 15:47 | 38.47435 | 22.91086 | 28056 ft | 403 kts | 313° |
| 2026-05-04 15:47 | 38.49275 | 22.88375 | 28399 ft | 404 kts | 313° |
| 2026-05-04 15:48 | 38.51120 | 22.85653 | 28719 ft | 406 kts | 313° |
| 2026-05-04 15:48 | 38.52971 | 22.82921 | 29048 ft | 407 kts | 313° |
| 2026-05-04 15:48 | 38.56673 | 22.77448 | 29793 ft | 405 kts | 314° |
| 2026-05-04 15:49 | 38.58500 | 22.74741 | 30476 ft | 397 kts | 314° |
| 2026-05-04 15:49 | 38.60294 | 22.72081 | 30936 ft | 393 kts | 314° |
| 2026-05-04 15:49 | 38.62060 | 22.69462 | 31181 ft | 395 kts | 314° |
| 2026-05-04 15:49 | 38.63861 | 22.66792 | 31386 ft | 397 kts | 314° |
| 2026-05-04 15:50 | 38.65661 | 22.64120 | 31680 ft | 396 kts | 314° |
| 2026-05-04 15:50 | 38.67465 | 22.61440 | 31934 ft | 397 kts | 314° |
| 2026-05-04 15:50 | 38.69270 | 22.58756 | 32242 ft | 397 kts | 313° |
| 2026-05-04 15:50 | 38.71063 | 22.56086 | 32615 ft | 394 kts | 313° |
| 2026-05-04 15:51 | 38.72843 | 22.53432 | 32972 ft | 392 kts | 313° |
| 2026-05-04 15:51 | 38.74621 | 22.50780 | 33262 ft | 392 kts | 314° |
| 2026-05-04 15:51 | 38.76397 | 22.48131 | 33513 ft | 392 kts | 314° |
| 2026-05-04 15:51 | 38.78173 | 22.45478 | 33811 ft | 391 kts | 314° |
| 2026-05-04 15:52 | 38.79944 | 22.42829 | 34166 ft | 389 kts | 314° |
| 2026-05-04 15:52 | 38.81701 | 22.40200 | 34424 ft | 389 kts | 314° |
| 2026-05-04 15:52 | 38.83446 | 22.37588 | 34567 ft | 391 kts | 313° |
| 2026-05-04 15:52 | 38.85218 | 22.34933 | 34731 ft | 392 kts | 313° |
| 2026-05-04 15:53 | 38.86992 | 22.32273 | 34900 ft | 393 kts | 313° |
| 2026-05-04 15:53 | 38.88773 | 22.29599 | 35094 ft | 394 kts | 313° |
| 2026-05-04 15:53 | 38.90553 | 22.26925 | 35237 ft | 395 kts | 313° |
| 2026-05-04 15:53 | 38.92368 | 22.24195 | 35362 ft | 397 kts | 313° |
| 2026-05-04 15:54 | 38.94140 | 22.21529 | 35517 ft | 398 kts | 313° |
| 2026-05-04 15:54 | 38.95936 | 22.18823 | 35720 ft | 398 kts | 313° |
| 2026-05-04 15:54 | 38.97731 | 22.16115 | 35875 ft | 398 kts | 313° |
| 2026-05-04 15:54 | 38.99533 | 22.13397 | 35980 ft | 400 kts | 313° |
| 2026-05-04 15:55 | 39.03150 | 22.07933 | 36092 ft | 401 kts | 313° |
| 2026-05-04 15:55 | 39.06775 | 22.02445 | 36102 ft | 402 kts | 313° |
| 2026-05-04 15:56 | 39.10392 | 21.96960 | 36100 ft | 402 kts | 313° |
| 2026-05-04 15:56 | 39.14005 | 21.91472 | 36095 ft | 402 kts | 313° |
| 2026-05-04 15:57 | 39.17622 | 21.85971 | 36087 ft | 402 kts | 313° |
| 2026-05-04 15:57 | 39.21236 | 21.80461 | 36097 ft | 402 kts | 313° |
| 2026-05-04 15:58 | 39.24830 | 21.74975 | 36087 ft | 403 kts | 313° |
| 2026-05-04 15:58 | 39.28436 | 21.69458 | 36097 ft | 401 kts | 313° |
| 2026-05-04 15:59 | 39.32034 | 21.63946 | 36087 ft | 401 kts | 313° |
| 2026-05-04 15:59 | 39.35631 | 21.58426 | 36087 ft | 402 kts | 313° |
| 2026-05-04 16:00 | 39.39223 | 21.52903 | 36098 ft | 401 kts | 312° |
| 2026-05-04 16:00 | 39.42813 | 21.47373 | 36095 ft | 401 kts | 312° |
| 2026-05-04 16:01 | 39.46398 | 21.41842 | 36110 ft | 401 kts | 312° |
| 2026-05-04 16:01 | 39.49981 | 21.36304 | 36109 ft | 400 kts | 312° |
| 2026-05-04 16:02 | 39.53526 | 21.30815 | 36106 ft | 399 kts | 312° |
| 2026-05-04 16:03 | 39.58869 | 21.22525 | 36096 ft | 399 kts | 312° |
| 2026-05-04 16:03 | 39.62428 | 21.16990 | 36106 ft | 400 kts | 312° |
| 2026-05-04 16:04 | 39.65997 | 21.11429 | 36102 ft | 402 kts | 312° |
| 2026-05-04 16:04 | 39.71390 | 21.03010 | 36099 ft | 406 kts | 312° |
| 2026-05-04 16:05 | 39.75001 | 20.97358 | 36103 ft | 407 kts | 312° |
| 2026-05-04 16:06 | 39.80430 | 20.88842 | 36101 ft | 407 kts | 312° |
| 2026-05-04 16:07 | 39.87624 | 20.77522 | 36098 ft | 406 kts | 312° |
| 2026-05-04 16:08 | 39.94814 | 20.66166 | 36095 ft | 406 kts | 312° |
| 2026-05-04 16:09 | 40.03761 | 20.51978 | 36082 ft | 405 kts | 312° |
| 2026-05-04 16:10 | 40.11942 | 20.42193 | 36090 ft | 398 kts | 325° |
| 2026-05-04 16:11 | 40.20918 | 20.33621 | 36102 ft | 401 kts | 324° |
| 2026-05-04 16:12 | 40.34414 | 20.20566 | 36097 ft | 404 kts | 324° |
| 2026-05-04 16:13 | 40.43444 | 20.11793 | 36090 ft | 403 kts | 324° |
| 2026-05-04 16:14 | 40.52431 | 20.03031 | 36108 ft | 404 kts | 324° |
| 2026-05-04 16:16 | 40.63710 | 19.91979 | 36107 ft | 404 kts | 324° |
| 2026-05-04 16:17 | 40.74984 | 19.80874 | 36116 ft | 405 kts | 324° |
| 2026-05-04 16:18 | 40.83986 | 19.71974 | 36101 ft | 403 kts | 324° |
| 2026-05-04 16:19 | 40.95179 | 19.60863 | 36104 ft | 402 kts | 324° |
| 2026-05-04 16:20 | 41.06328 | 19.49749 | 36107 ft | 402 kts | 324° |
| 2026-05-04 16:22 | 41.17506 | 19.38556 | 36108 ft | 403 kts | 323° |
| 2026-05-04 16:23 | 41.30703 | 19.25278 | 36107 ft | 404 kts | 323° |
| 2026-05-04 16:25 | 41.44121 | 19.11706 | 36090 ft | 404 kts | 323° |
| 2026-05-04 16:26 | 41.59555 | 18.95608 | 36104 ft | 405 kts | 322° |
| 2026-05-04 16:28 | 41.70634 | 18.83943 | 36106 ft | 405 kts | 322° |
| 2026-05-04 16:29 | 41.86090 | 18.67589 | 36110 ft | 404 kts | 322° |
| 2026-05-04 16:31 | 41.96381 | 18.56641 | 36113 ft | 405 kts | 322° |
| 2026-05-04 16:32 | 42.09624 | 18.42486 | 36110 ft | 405 kts | 322° |
| 2026-05-04 16:33 | 42.18450 | 18.33008 | 36117 ft | 406 kts | 322° |
| 2026-05-04 16:34 | 42.25048 | 18.25900 | 36122 ft | 406 kts | 322° |
| 2026-05-04 16:35 | 42.38300 | 18.11565 | 36130 ft | 408 kts | 321° |
| 2026-05-04 16:36 | 42.44946 | 18.04344 | 36128 ft | 408 kts | 321° |
| 2026-05-04 16:37 | 42.51584 | 17.97113 | 36127 ft | 408 kts | 321° |
| 2026-05-04 16:38 | 42.60433 | 17.87442 | 36123 ft | 408 kts | 321° |
| 2026-05-04 16:39 | 42.71455 | 17.75343 | 36118 ft | 408 kts | 321° |
| 2026-05-04 16:40 | 42.80283 | 17.65612 | 36118 ft | 408 kts | 321° |
| 2026-05-04 16:41 | 42.91289 | 17.53440 | 36117 ft | 409 kts | 322° |
| 2026-05-04 16:43 | 43.02604 | 17.41573 | 36106 ft | 410 kts | 322° |
| 2026-05-04 16:43 | 43.09396 | 17.34430 | 36104 ft | 410 kts | 322° |
| 2026-05-04 16:45 | 43.22923 | 17.20105 | 36102 ft | 410 kts | 322° |
| 2026-05-04 16:46 | 43.34209 | 17.08088 | 36103 ft | 411 kts | 322° |
| 2026-05-04 16:47 | 43.43271 | 16.98397 | 36108 ft | 413 kts | 321° |
| 2026-05-04 16:48 | 43.52337 | 16.88664 | 36102 ft | 415 kts | 321° |
| 2026-05-04 16:49 | 43.61449 | 16.78843 | 36098 ft | 415 kts | 321° |
| 2026-05-04 16:50 | 43.70520 | 16.69029 | 36095 ft | 415 kts | 321° |
| 2026-05-04 16:51 | 43.77337 | 16.61626 | 36111 ft | 414 kts | 321° |
| 2026-05-04 16:52 | 43.86395 | 16.51757 | 36102 ft | 414 kts | 321° |
| 2026-05-04 16:53 | 43.93173 | 16.44345 | 36102 ft | 415 kts | 321° |
| 2026-05-04 16:54 | 44.02263 | 16.34372 | 36125 ft | 417 kts | 321° |
| 2026-05-04 16:55 | 44.15940 | 16.19289 | 36100 ft | 420 kts | 321° |
| 2026-05-04 16:56 | 44.27381 | 16.06602 | 36099 ft | 422 kts | 320° |
| 2026-05-04 16:57 | 44.34274 | 15.98926 | 36096 ft | 423 kts | 320° |
| 2026-05-04 16:58 | 44.43476 | 15.88643 | 36100 ft | 425 kts | 320° |
| 2026-05-04 16:59 | 44.48127 | 15.83428 | 36313 ft | 429 kts | 320° |
| 2026-05-04 17:00 | 44.57372 | 15.73032 | 37361 ft | 422 kts | 320° |
| 2026-05-04 17:00 | 44.64166 | 15.65365 | 38037 ft | 418 kts | 320° |
| 2026-05-04 17:01 | 44.68713 | 15.60218 | 38071 ft | 420 kts | 319° |
| 2026-05-04 17:02 | 44.77765 | 15.49943 | 38080 ft | 417 kts | 319° |
| 2026-05-04 17:03 | 44.84499 | 15.42271 | 38077 ft | 416 kts | 319° |
| 2026-05-04 17:03 | 44.91239 | 15.34568 | 38080 ft | 416 kts | 319° |
| 2026-05-04 17:04 | 45.00229 | 15.24256 | 38068 ft | 417 kts | 319° |
| 2026-05-04 17:05 | 45.09248 | 15.13869 | 38065 ft | 419 kts | 319° |
| 2026-05-04 17:06 | 45.16006 | 15.06056 | 38079 ft | 420 kts | 319° |
| 2026-05-04 17:07 | 45.22071 | 14.99023 | 38053 ft | 421 kts | 319° |
| 2026-05-04 17:07 | 45.27342 | 14.92896 | 38070 ft | 422 kts | 319° |
| 2026-05-04 17:08 | 45.34164 | 14.84942 | 38082 ft | 423 kts | 319° |
| 2026-05-04 17:09 | 45.38717 | 14.79620 | 38082 ft | 424 kts | 319° |
| 2026-05-04 17:09 | 45.43269 | 14.74286 | 38068 ft | 424 kts | 319° |
| 2026-05-04 17:10 | 45.54623 | 14.60935 | 38078 ft | 423 kts | 319° |
| 2026-05-04 17:11 | 45.59152 | 14.55589 | 38082 ft | 422 kts | 318° |
| 2026-05-04 17:12 | 45.65939 | 14.47556 | 38076 ft | 422 kts | 318° |
| 2026-05-04 17:13 | 45.77230 | 14.34132 | 38067 ft | 422 kts | 318° |
| 2026-05-04 17:14 | 45.86217 | 14.23396 | 38072 ft | 422 kts | 318° |
| 2026-05-04 17:15 | 45.92978 | 14.15288 | 38073 ft | 422 kts | 318° |
| 2026-05-04 17:16 | 46.01989 | 14.04440 | 38075 ft | 423 kts | 318° |
| 2026-05-04 17:17 | 46.11031 | 13.93508 | 38081 ft | 424 kts | 317° |
| 2026-05-04 17:18 | 46.19334 | 13.83424 | 38080 ft | 425 kts | 317° |
| 2026-05-04 17:19 | 46.28365 | 13.72411 | 38074 ft | 426 kts | 317° |
| 2026-05-04 17:20 | 46.37429 | 13.61307 | 38088 ft | 426 kts | 317° |
| 2026-05-04 17:20 | 46.44223 | 13.52951 | 38060 ft | 426 kts | 317° |
| 2026-05-04 17:21 | 46.52366 | 13.40660 | 38061 ft | 422 kts | 309° |
| 2026-05-04 17:22 | 46.56209 | 13.34243 | 38053 ft | 419 kts | 309° |
| 2026-05-04 17:23 | 46.63931 | 13.21541 | 38076 ft | 421 kts | 310° |
| 2026-05-04 17:24 | 46.69768 | 13.11972 | 38074 ft | 424 kts | 310° |
| 2026-05-04 17:25 | 46.77632 | 12.99025 | 38069 ft | 429 kts | 309° |
| 2026-05-04 17:26 | 46.85554 | 12.85921 | 38054 ft | 432 kts | 309° |
| 2026-05-04 17:27 | 46.95452 | 12.69459 | 38024 ft | 431 kts | 309° |
| 2026-05-04 17:28 | 47.03306 | 12.56325 | 38033 ft | 426 kts | 309° |
| 2026-05-04 17:29 | 47.14986 | 12.36670 | 38009 ft | 427 kts | 308° |
| 2026-05-04 17:31 | 47.24748 | 12.20133 | 37987 ft | 428 kts | 308° |
| 2026-05-04 17:32 | 47.34509 | 12.03495 | 37957 ft | 432 kts | 308° |
| 2026-05-04 17:33 | 47.42378 | 11.90008 | 37940 ft | 434 kts | 308° |
| 2026-05-04 17:34 | 47.50227 | 11.76492 | 37921 ft | 432 kts | 308° |
| 2026-05-04 17:35 | 47.59964 | 11.59623 | 37919 ft | 429 kts | 308° |
| 2026-05-04 17:36 | 47.63837 | 11.52885 | 37912 ft | 429 kts | 308° |
| 2026-05-04 17:36 | 47.67698 | 11.46152 | 37920 ft | 428 kts | 307° |
| 2026-05-04 17:37 | 47.71530 | 11.39449 | 37934 ft | 428 kts | 307° |
| 2026-05-04 17:37 | 47.75388 | 11.32687 | 37934 ft | 429 kts | 307° |
| 2026-05-04 17:38 | 47.79246 | 11.25907 | 37929 ft | 429 kts | 307° |
| 2026-05-04 17:38 | 47.83100 | 11.19116 | 37962 ft | 430 kts | 307° |
| 2026-05-04 17:39 | 47.88891 | 11.08882 | 37962 ft | 431 kts | 307° |
| 2026-05-04 17:39 | 47.92753 | 11.02034 | 37969 ft | 432 kts | 307° |
| 2026-05-04 17:40 | 47.96618 | 10.95163 | 37967 ft | 433 kts | 307° |
| 2026-05-04 17:40 | 48.00466 | 10.88307 | 37964 ft | 433 kts | 307° |
| 2026-05-04 17:41 | 48.04332 | 10.81399 | 37946 ft | 434 kts | 307° |
| 2026-05-04 17:41 | 48.08205 | 10.74462 | 37938 ft | 434 kts | 307° |
| 2026-05-04 17:42 | 48.12070 | 10.67521 | 37956 ft | 434 kts | 306° |
| 2026-05-04 17:42 | 48.15930 | 10.60571 | 37945 ft | 434 kts | 306° |
| 2026-05-04 17:43 | 48.19789 | 10.53605 | 37943 ft | 434 kts | 306° |
| 2026-05-04 17:43 | 48.23633 | 10.46648 | 37945 ft | 433 kts | 306° |
| 2026-05-04 17:44 | 48.27472 | 10.39682 | 37951 ft | 432 kts | 306° |
| 2026-05-04 17:44 | 48.31300 | 10.32718 | 37970 ft | 432 kts | 305° |
| 2026-05-04 17:45 | 48.35093 | 10.25799 | 37951 ft | 431 kts | 305° |
| 2026-05-04 17:45 | 48.38903 | 10.18832 | 37950 ft | 431 kts | 305° |
| 2026-05-04 17:46 | 48.42709 | 10.11852 | 37947 ft | 431 kts | 305° |
| 2026-05-04 17:46 | 48.46507 | 10.04870 | 37954 ft | 431 kts | 305° |
| 2026-05-04 17:47 | 48.50305 | 9.97869 | 37973 ft | 431 kts | 305° |
| 2026-05-04 17:47 | 48.54098 | 9.90859 | 37963 ft | 432 kts | 305° |
| 2026-05-04 17:48 | 48.57899 | 9.83815 | 37967 ft | 433 kts | 305° |
| 2026-05-04 17:48 | 48.61703 | 9.76749 | 37972 ft | 435 kts | 305° |
| 2026-05-04 17:49 | 48.65505 | 9.69667 | 37966 ft | 437 kts | 305° |
| 2026-05-04 17:49 | 48.69291 | 9.62471 | 37978 ft | 437 kts | 303° |
| 2026-05-04 17:50 | 48.72951 | 9.55112 | 37982 ft | 438 kts | 303° |
| 2026-05-04 17:50 | 48.76606 | 9.47693 | 37975 ft | 439 kts | 303° |
| 2026-05-04 17:51 | 48.80267 | 9.40281 | 37981 ft | 440 kts | 303° |
| 2026-05-04 17:51 | 48.83950 | 9.32834 | 37966 ft | 440 kts | 303° |
| 2026-05-04 17:52 | 48.87599 | 9.25444 | 37965 ft | 440 kts | 303° |
| 2026-05-04 17:52 | 48.91266 | 9.17997 | 37966 ft | 439 kts | 303° |
| 2026-05-04 17:53 | 48.94915 | 9.10565 | 38000 ft | 438 kts | 303° |
| 2026-05-04 17:53 | 48.98557 | 9.03127 | 37975 ft | 438 kts | 302° |
| 2026-05-04 17:54 | 49.02186 | 8.95693 | 37975 ft | 437 kts | 302° |
| 2026-05-04 17:54 | 49.05781 | 8.88309 | 37983 ft | 436 kts | 302° |
| 2026-05-04 17:55 | 49.09393 | 8.80869 | 37994 ft | 436 kts | 302° |
| 2026-05-04 17:55 | 49.13003 | 8.73411 | 37987 ft | 437 kts | 302° |
| 2026-05-04 17:56 | 49.16606 | 8.65950 | 37979 ft | 437 kts | 302° |
| 2026-05-04 17:56 | 49.20206 | 8.58472 | 37981 ft | 437 kts | 302° |
| 2026-05-04 17:57 | 49.23799 | 8.50990 | 37982 ft | 438 kts | 302° |
| 2026-05-04 17:57 | 49.27399 | 8.43469 | 37984 ft | 438 kts | 302° |
| 2026-05-04 17:58 | 49.31003 | 8.35922 | 37988 ft | 438 kts | 302° |
| 2026-05-04 17:58 | 49.34598 | 8.28370 | 37983 ft | 439 kts | 302° |
| 2026-05-04 17:59 | 49.38194 | 8.20796 | 37990 ft | 439 kts | 302° |
| 2026-05-04 18:00 | 49.43586 | 8.09398 | 37973 ft | 439 kts | 302° |
| 2026-05-04 18:00 | 49.47174 | 8.01787 | 38000 ft | 439 kts | 301° |
| 2026-05-04 18:01 | 49.50736 | 7.94208 | 37985 ft | 440 kts | 301° |
| 2026-05-04 18:01 | 49.54322 | 7.86557 | 37985 ft | 440 kts | 301° |
| 2026-05-04 18:02 | 49.59698 | 7.75045 | 37979 ft | 441 kts | 301° |
| 2026-05-04 18:02 | 49.63272 | 7.67365 | 37982 ft | 441 kts | 301° |
| 2026-05-04 18:03 | 49.66829 | 7.59698 | 37990 ft | 442 kts | 301° |
| 2026-05-04 18:03 | 49.70403 | 7.51972 | 37994 ft | 442 kts | 301° |
| 2026-05-04 18:04 | 49.73976 | 7.44227 | 38007 ft | 443 kts | 301° |
| 2026-05-04 18:05 | 49.78736 | 7.33873 | 38008 ft | 443 kts | 301° |
| 2026-05-04 18:05 | 49.82307 | 7.26078 | 37985 ft | 444 kts | 301° |
| 2026-05-04 18:06 | 49.87652 | 7.14370 | 38003 ft | 444 kts | 301° |
| 2026-05-04 18:06 | 49.91215 | 7.06535 | 37988 ft | 443 kts | 301° |
| 2026-05-04 18:07 | 49.94767 | 6.98702 | 37993 ft | 443 kts | 301° |
| 2026-05-04 18:07 | 49.98317 | 6.90850 | 37988 ft | 443 kts | 301° |
| 2026-05-04 18:08 | 50.01855 | 6.83000 | 37988 ft | 443 kts | 301° |
| 2026-05-04 18:08 | 50.05389 | 6.75137 | 37979 ft | 443 kts | 301° |
| 2026-05-04 18:09 | 50.12416 | 6.59429 | 37972 ft | 443 kts | 300° |
| 2026-05-04 18:10 | 50.15929 | 6.51543 | 37976 ft | 443 kts | 300° |
| 2026-05-04 18:10 | 50.19430 | 6.43631 | 37973 ft | 442 kts | 299° |
| 2026-05-04 18:11 | 50.22688 | 6.35518 | 37974 ft | 441 kts | 297° |
| 2026-05-04 18:11 | 50.25851 | 6.27316 | 37980 ft | 440 kts | 297° |
| 2026-05-04 18:12 | 50.29005 | 6.19179 | 37986 ft | 440 kts | 297° |
| 2026-05-04 18:12 | 50.32202 | 6.10979 | 37979 ft | 441 kts | 297° |
| 2026-05-04 18:13 | 50.35402 | 6.02776 | 37988 ft | 441 kts | 297° |
| 2026-05-04 18:14 | 50.40193 | 5.90452 | 37989 ft | 442 kts | 297° |
| 2026-05-04 18:14 | 50.43380 | 5.82221 | 37992 ft | 441 kts | 297° |
| 2026-05-04 18:15 | 50.49740 | 5.65711 | 37989 ft | 442 kts | 297° |
| 2026-05-04 18:16 | 50.52890 | 5.57494 | 38004 ft | 441 kts | 297° |
| 2026-05-04 18:16 | 50.56055 | 5.49214 | 37989 ft | 442 kts | 297° |
| 2026-05-04 18:17 | 50.60792 | 5.36770 | 37987 ft | 441 kts | 297° |
| 2026-05-04 18:18 | 50.65516 | 5.24300 | 37975 ft | 441 kts | 297° |
| 2026-05-04 18:18 | 50.68657 | 5.15975 | 37972 ft | 441 kts | 297° |
| 2026-05-04 18:19 | 50.73337 | 5.03520 | 37978 ft | 442 kts | 297° |
| 2026-05-04 18:19 | 50.76472 | 4.95144 | 37977 ft | 442 kts | 297° |
| 2026-05-04 18:20 | 50.79593 | 4.86777 | 37975 ft | 442 kts | 297° |
| 2026-05-04 18:20 | 50.82711 | 4.78392 | 37967 ft | 442 kts | 297° |
| 2026-05-04 18:21 | 50.85823 | 4.69995 | 37968 ft | 442 kts | 297° |
| 2026-05-04 18:21 | 50.88934 | 4.61574 | 37968 ft | 443 kts | 297° |
| 2026-05-04 18:22 | 50.92020 | 4.53191 | 37968 ft | 443 kts | 297° |
| 2026-05-04 18:22 | 50.95120 | 4.44746 | 37968 ft | 443 kts | 297° |
| 2026-05-04 18:23 | 50.98220 | 4.36272 | 37967 ft | 444 kts | 297° |
| 2026-05-04 18:23 | 51.01313 | 4.27786 | 37968 ft | 444 kts | 297° |
| 2026-05-04 18:24 | 51.04399 | 4.19293 | 37970 ft | 444 kts | 297° |
| 2026-05-04 18:24 | 51.07480 | 4.10785 | 37968 ft | 444 kts | 296° |
| 2026-05-04 18:25 | 51.10558 | 4.02259 | 37974 ft | 444 kts | 296° |
| 2026-05-04 18:25 | 51.13633 | 3.93710 | 37964 ft | 444 kts | 296° |
| 2026-05-04 18:26 | 51.16701 | 3.85152 | 37968 ft | 444 kts | 296° |
| 2026-05-04 18:26 | 51.19758 | 3.76598 | 37984 ft | 444 kts | 296° |
| 2026-05-04 18:27 | 51.22770 | 3.68069 | 37971 ft | 443 kts | 293° |
| 2026-05-04 18:27 | 51.24635 | 3.58833 | 37991 ft | 436 kts | 278° |
| 2026-05-04 18:28 | 51.25782 | 3.49336 | 37978 ft | 436 kts | 278° |
| 2026-05-04 18:28 | 51.27006 | 3.39844 | 37986 ft | 436 kts | 279° |
| 2026-05-04 18:29 | 51.28172 | 3.30936 | 37995 ft | 436 kts | 279° |
| 2026-05-04 18:29 | 51.29295 | 3.22283 | 37995 ft | 437 kts | 279° |
| 2026-05-04 18:30 | 51.31131 | 3.07997 | 37995 ft | 438 kts | 279° |
| 2026-05-04 18:31 | 51.32339 | 2.98513 | 37996 ft | 438 kts | 279° |
| 2026-05-04 18:31 | 51.33548 | 2.88959 | 37995 ft | 439 kts | 278° |
| 2026-05-04 18:32 | 51.34753 | 2.79385 | 38004 ft | 439 kts | 278° |
| 2026-05-04 18:32 | 51.35947 | 2.69786 | 38004 ft | 439 kts | 278° |
| 2026-05-04 18:33 | 51.37120 | 2.60182 | 38000 ft | 440 kts | 278° |
| 2026-05-04 18:33 | 51.38279 | 2.50631 | 37998 ft | 439 kts | 278° |
| 2026-05-04 18:34 | 51.39439 | 2.41025 | 38003 ft | 439 kts | 278° |
| 2026-05-04 18:34 | 51.40592 | 2.31411 | 38000 ft | 439 kts | 278° |
| 2026-05-04 18:35 | 51.41748 | 2.21772 | 38004 ft | 439 kts | 278° |
| 2026-05-04 18:35 | 51.42917 | 2.12231 | 38003 ft | 439 kts | 278° |
| 2026-05-04 18:36 | 51.44086 | 2.02619 | 38003 ft | 439 kts | 278° |
| 2026-05-04 18:36 | 51.45238 | 1.93001 | 38003 ft | 438 kts | 278° |
| 2026-05-04 18:37 | 51.46369 | 1.83393 | 38002 ft | 439 kts | 278° |
| 2026-05-04 18:37 | 51.47471 | 1.73763 | 38008 ft | 439 kts | 278° |
| 2026-05-04 18:38 | 51.48569 | 1.64128 | 38014 ft | 439 kts | 278° |
| 2026-05-04 18:38 | 51.49662 | 1.54477 | 38011 ft | 439 kts | 278° |
| 2026-05-04 18:39 | 51.50749 | 1.44831 | 38017 ft | 440 kts | 278° |
| 2026-05-04 18:39 | 51.51824 | 1.35217 | 38013 ft | 438 kts | 278° |
| 2026-05-04 18:39 | 51.52354 | 1.30460 | 37998 ft | 427 kts | 278° |
| 2026-05-04 18:40 | 51.52869 | 1.25822 | 38003 ft | 419 kts | 277° |
| 2026-05-04 18:40 | 51.53881 | 1.16632 | 38022 ft | 417 kts | 277° |
| 2026-05-04 18:40 | 51.54384 | 1.12029 | 37822 ft | 421 kts | 277° |
| 2026-05-04 18:41 | 51.54893 | 1.07377 | 37250 ft | 422 kts | 277° |
| 2026-05-04 18:41 | 51.55401 | 1.02732 | 36628 ft | 424 kts | 277° |
| 2026-05-04 18:41 | 51.55910 | 0.98060 | 36171 ft | 422 kts | 277° |
| 2026-05-04 18:41 | 51.56412 | 0.93427 | 35823 ft | 418 kts | 277° |
| 2026-05-04 18:42 | 51.56903 | 0.88854 | 35466 ft | 414 kts | 277° |
| 2026-05-04 18:42 | 51.57390 | 0.84298 | 35123 ft | 410 kts | 277° |
| 2026-05-04 18:42 | 51.57863 | 0.79861 | 34797 ft | 406 kts | 277° |
| 2026-05-04 18:42 | 51.58336 | 0.75400 | 34457 ft | 403 kts | 277° |
| 2026-05-04 18:43 | 51.58804 | 0.70980 | 34111 ft | 400 kts | 276° |
| 2026-05-04 18:43 | 51.59268 | 0.66583 | 33723 ft | 397 kts | 276° |
| 2026-05-04 18:43 | 51.59730 | 0.62222 | 33314 ft | 394 kts | 277° |
| 2026-05-04 18:43 | 51.60236 | 0.57899 | 32905 ft | 392 kts | 278° |
| 2026-05-04 18:44 | 51.60728 | 0.53606 | 32510 ft | 389 kts | 277° |
| 2026-05-04 18:44 | 51.60882 | 0.52157 | 32353 ft | 388 kts | 276° |
| 2026-05-04 18:44 | 51.61597 | 0.45067 | 31736 ft | 385 kts | 276° |
| 2026-05-04 18:44 | 51.62022 | 0.40814 | 31306 ft | 384 kts | 276° |
| 2026-05-04 18:45 | 51.62446 | 0.36586 | 30952 ft | 382 kts | 276° |
| 2026-05-04 18:45 | 51.62869 | 0.32393 | 30622 ft | 379 kts | 276° |
| 2026-05-04 18:45 | 51.63292 | 0.28219 | 30283 ft | 376 kts | 276° |
| 2026-05-04 18:45 | 51.63711 | 0.24076 | 29915 ft | 374 kts | 276° |
| 2026-05-04 18:46 | 51.64125 | 0.19956 | 29507 ft | 371 kts | 276° |
| 2026-05-04 18:46 | 51.64585 | 0.15876 | 29086 ft | 370 kts | 282° |
| 2026-05-04 18:46 | 51.65426 | 0.11958 | 28634 ft | 372 kts | 291° |
| 2026-05-04 18:46 | 51.66499 | 0.08166 | 28236 ft | 370 kts | 292° |
| 2026-05-04 18:47 | 51.67572 | 0.04469 | 27849 ft | 368 kts | 292° |
| 2026-05-04 18:47 | 51.68650 | 0.00745 | 27451 ft | 366 kts | 292° |
| 2026-05-04 18:47 | 51.69719 | -0.02981 | 27084 ft | 365 kts | 291° |
| 2026-05-04 18:47 | 51.70774 | -0.06691 | 26701 ft | 363 kts | 291° |
| 2026-05-04 18:48 | 51.71816 | -0.10382 | 26332 ft | 361 kts | 291° |
| 2026-05-04 18:48 | 51.72849 | -0.14062 | 25972 ft | 359 kts | 291° |
| 2026-05-04 18:48 | 51.73875 | -0.17726 | 25619 ft | 357 kts | 291° |
| 2026-05-04 18:48 | 51.74896 | -0.21378 | 25265 ft | 356 kts | 291° |
| 2026-05-04 18:49 | 51.75908 | -0.25005 | 24913 ft | 354 kts | 291° |
| 2026-05-04 18:49 | 51.76577 | -0.27408 | 24682 ft | 353 kts | 291° |
| 2026-05-04 18:49 | 51.77747 | -0.30887 | 24329 ft | 355 kts | 303° |
| 2026-05-04 18:49 | 51.79397 | -0.33843 | 23915 ft | 352 kts | 316° |
| 2026-05-04 18:50 | 51.81351 | -0.36224 | 23366 ft | 352 kts | 322° |
| 2026-05-04 18:50 | 51.83371 | -0.38450 | 22816 ft | 349 kts | 322° |
| 2026-05-04 18:50 | 51.85370 | -0.40651 | 22296 ft | 346 kts | 322° |
| 2026-05-04 18:50 | 51.87347 | -0.42838 | 21761 ft | 343 kts | 322° |
| 2026-05-04 18:51 | 51.89307 | -0.45021 | 21222 ft | 340 kts | 322° |
| 2026-05-04 18:51 | 51.91248 | -0.47192 | 20715 ft | 338 kts | 323° |
| 2026-05-04 18:51 | 51.93173 | -0.49354 | 20219 ft | 335 kts | 323° |
| 2026-05-04 18:51 | 51.95050 | -0.51467 | 19730 ft | 332 kts | 323° |
| 2026-05-04 18:52 | 51.96946 | -0.53605 | 19235 ft | 330 kts | 323° |
| 2026-05-04 18:52 | 51.98826 | -0.55730 | 18767 ft | 328 kts | 323° |
| 2026-05-04 18:52 | 52.00694 | -0.57843 | 18286 ft | 326 kts | 323° |
| 2026-05-04 18:52 | 52.02549 | -0.59943 | 17759 ft | 324 kts | 323° |
| 2026-05-04 18:53 | 52.04392 | -0.62035 | 17277 ft | 320 kts | 321° |
| 2026-05-04 18:53 | 52.05890 | -0.64605 | 16796 ft | 311 kts | 297° |
| 2026-05-04 18:53 | 52.06777 | -0.67758 | 16374 ft | 305 kts | 291° |
| 2026-05-04 18:53 | 52.07595 | -0.70938 | 15865 ft | 303 kts | 291° |
| 2026-05-04 18:54 | 52.08397 | -0.74099 | 15354 ft | 301 kts | 291° |
| 2026-05-04 18:54 | 52.09177 | -0.77198 | 14943 ft | 297 kts | 291° |
| 2026-05-04 18:54 | 52.09950 | -0.80282 | 14514 ft | 293 kts | 291° |
| 2026-05-04 18:54 | 52.10710 | -0.83336 | 14103 ft | 289 kts | 291° |
| 2026-05-04 18:55 | 52.11453 | -0.86349 | 13724 ft | 284 kts | 291° |
| 2026-05-04 18:55 | 52.12892 | -0.92268 | 12762 ft | 280 kts | 290° |
| 2026-05-04 18:55 | 52.13603 | -0.95213 | 12259 ft | 280 kts | 290° |
| 2026-05-04 18:56 | 52.14309 | -0.98144 | 11844 ft | 276 kts | 290° |
| 2026-05-04 18:56 | 52.15010 | -1.01041 | 11373 ft | 274 kts | 290° |
| 2026-05-04 18:56 | 52.15713 | -1.03927 | 10917 ft | 273 kts | 290° |
| 2026-05-04 18:56 | 52.16414 | -1.06799 | 10470 ft | 272 kts | 290° |
| 2026-05-04 18:57 | 52.17112 | -1.09661 | 10004 ft | 272 kts | 290° |
| 2026-05-04 18:57 | 52.17810 | -1.12519 | 9553 ft | 270 kts | 290° |
| 2026-05-04 18:57 | 52.18499 | -1.15340 | 9114 ft | 267 kts | 290° |
| 2026-05-04 18:57 | 52.19184 | -1.18152 | 8637 ft | 266 kts | 290° |
| 2026-05-04 18:58 | 52.19862 | -1.20932 | 8263 ft | 261 kts | 290° |
| 2026-05-04 18:58 | 52.20532 | -1.23674 | 7818 ft | 260 kts | 290° |
| 2026-05-04 18:58 | 52.21188 | -1.26380 | 7377 ft | 259 kts | 290° |
| 2026-05-04 18:58 | 52.21838 | -1.29064 | 7180 ft | 248 kts | 290° |
| 2026-05-04 18:59 | 52.22462 | -1.31630 | 6980 ft | 238 kts | 290° |
| 2026-05-04 18:59 | 52.23061 | -1.34097 | 6787 ft | 229 kts | 290° |
| 2026-05-04 18:59 | 52.23636 | -1.36468 | 6596 ft | 220 kts | 290° |
| 2026-05-04 18:59 | 52.24186 | -1.38751 | 6405 ft | 213 kts | 290° |
| 2026-05-04 19:00 | 52.24721 | -1.40979 | 6131 ft | 207 kts | 290° |
| 2026-05-04 19:00 | 52.25241 | -1.43121 | 5813 ft | 201 kts | 294° |
| 2026-05-04 19:00 | 52.25918 | -1.45099 | 5478 ft | 198 kts | 300° |
| 2026-05-04 19:00 | 52.26635 | -1.47023 | 5130 ft | 198 kts | 300° |
| 2026-05-04 19:01 | 52.27338 | -1.48921 | 4904 ft | 193 kts | 301° |
| 2026-05-04 19:01 | 52.28008 | -1.50786 | 4659 ft | 189 kts | 301° |
| 2026-05-04 19:01 | 52.28654 | -1.52627 | 4385 ft | 186 kts | 300° |
| 2026-05-04 19:01 | 52.29287 | -1.54449 | 4141 ft | 183 kts | 300° |
| 2026-05-04 19:02 | 52.29901 | -1.56231 | 3911 ft | 181 kts | 300° |
| 2026-05-04 19:02 | 52.30523 | -1.58006 | 3698 ft | 179 kts | 306° |
| 2026-05-04 19:02 | 52.31454 | -1.59326 | 3502 ft | 178 kts | 326° |
| 2026-05-04 19:02 | 52.32499 | -1.60462 | 3271 ft | 182 kts | 327° |
| 2026-05-04 19:03 | 52.33560 | -1.61619 | 3014 ft | 183 kts | 326° |
| 2026-05-04 19:03 | 52.34605 | -1.62777 | 2768 ft | 180 kts | 326° |
| 2026-05-04 19:03 | 52.35630 | -1.63920 | 2528 ft | 174 kts | 327° |
| 2026-05-04 19:03 | 52.36590 | -1.64992 | 2308 ft | 162 kts | 327° |
| 2026-05-04 19:04 | 52.37504 | -1.66013 | 2092 ft | 158 kts | 328° |
| 2026-05-04 19:04 | 52.38402 | -1.67016 | 1907 ft | 155 kts | 328° |
| 2026-05-04 19:04 | 52.39291 | -1.68008 | 1675 ft | 153 kts | 328° |
| 2026-05-04 19:04 | 52.40168 | -1.68985 | 1453 ft | 152 kts | 328° |
| 2026-05-04 19:05 | 52.41034 | -1.69951 | 1244 ft | 153 kts | 327° |
| 2026-05-04 19:05 | 52.41913 | -1.70932 | 1021 ft | 153 kts | 328° |
| 2026-05-04 19:05 | 52.42781 | -1.71912 | 802 ft | 150 kts | 326° |
| 2026-05-04 19:05 | 52.43636 | -1.72874 | 587 ft | 149 kts | 328° |
| 2026-05-04 19:06 | 52.44490 | -1.73814 | 402 ft | 146 kts | 328° |
| 2026-05-04 19:06 | 52.45294 | -1.74700 | 323 ft | 119 kts | 326° |
| 2026-05-04 19:06 | 52.45791 | -1.75251 | 322 ft | 52 kts | 326° |
| 2026-05-04 19:06 | 52.46029 | -1.75516 | 310 ft | 37 kts | 326° |
| 2026-05-04 19:07 | 52.46132 | -1.75615 | 308 ft | 11 kts | 358° |
| 2026-05-04 19:07 | 52.46186 | -1.75540 | 308 ft | 11 kts | 56° |
| 2026-05-04 19:07 | 52.46216 | -1.75415 | 303 ft | 13 kts | 109° |
| 2026-05-04 19:07 | 52.46147 | -1.75320 | 303 ft | 13 kts | 146° |
| 2026-05-04 19:08 | 52.46070 | -1.75234 | 306 ft | 14 kts | 146° |
| 2026-05-04 19:08 | 52.45987 | -1.75141 | 305 ft | 15 kts | 146° |
| 2026-05-04 19:08 | 52.45898 | -1.75042 | 307 ft | 16 kts | 146° |
| 2026-05-04 19:08 | 52.45810 | -1.74945 | 311 ft | 15 kts | 146° |
| 2026-05-04 19:09 | 52.45726 | -1.74852 | 310 ft | 14 kts | 146° |
| 2026-05-04 19:09 | 52.45646 | -1.74762 | 315 ft | 14 kts | 146° |
| 2026-05-04 19:09 | 52.45569 | -1.74677 | 319 ft | 13 kts | 146° |
| 2026-05-04 19:09 | 52.45493 | -1.74594 | 322 ft | 13 kts | 146° |
| 2026-05-04 19:10 | 52.45442 | -1.74464 | 322 ft | 15 kts | 116° |
| 2026-05-04 19:10 | 52.45394 | -1.74306 | 321 ft | 16 kts | 117° |
| 2026-05-04 19:10 | 52.45343 | -1.74141 | 322 ft | 17 kts | 116° |
| 2026-05-04 19:10 | 52.45279 | -1.73975 | 322 ft | 18 kts | 142° |
| 2026-05-04 19:11 | 52.45179 | -1.73862 | 321 ft | 16 kts | 146° |
| 2026-05-04 19:11 | 52.45103 | -1.73778 | 322 ft | 13 kts | 149° |
| 2026-05-04 19:11 | 52.45022 | -1.73729 | 322 ft | 12 kts | 148° |
| 2026-05-04 19:11 | 52.44951 | -1.73652 | 322 ft | 12 kts | 146° |
| 2026-05-04 19:12 | 52.44943 | -1.73642 | 322 ft | 1 kts | 139° |
| 2026-05-04 19:12 | 52.44950 | -1.73591 | 322 ft | 5 kts | 56° |
| 2026-05-04 19:12 | 52.44966 | -1.73552 | 322 ft | 2 kts | 55° |
| 2026-05-04 19:13 | 52.44971 | -1.73541 | 322 ft | 0 kts | 56° |